Time;durP1;ratioP1;P1;durP2;ratioP2;P2;SDS_P1;SDS_P2;PMS_P1;PMS_P2;Temp;Humidity;BMP_temperature;BMP_pressure;BME280_temperature;BME280_humidity;BME280_pressure;Samples;Min_cycle;Max_cycle;Signal;HPM_P1;HPM_P2
2022/09/11 00:01:20;;;;;;;8.20;7.50;;;15.70;99.90;;;;;;5030162;28;20297;-77
2022/09/11 00:03:47;;;;;;;7.85;7.25;;;15.70;99.90;;;;;;5032086;28;20234;-77
2022/09/11 00:06:17;;;;;;;7.95;7.28;;;15.70;99.90;;;;;;5027879;28;20223;-78
2022/09/11 00:08:44;;;;;;;9.32;8.43;;;15.60;99.90;;;;;;5029746;28;20207;-77
2022/09/11 00:11:16;;;;;;;10.32;9.40;;;15.60;99.90;;;;;;5030464;28;20485;-77
2022/09/11 00:13:45;;;;;;;9.35;8.55;;;15.60;99.90;;;;;;5032988;28;20203;-78
2022/09/11 00:16:20;;;;;;;8.27;7.57;;;15.60;99.90;;;;;;5033227;28;20243;-77
2022/09/11 00:18:47;;;;;;;8.65;7.90;;;15.60;99.90;;;;;;5033227;28;20193;-77
2022/09/11 00:21:14;;;;;;;8.40;7.70;;;15.50;99.90;;;;;;5033061;28;20210;-78
2022/09/11 00:23:41;;;;;;;8.40;7.68;;;15.50;99.90;;;;;;5030787;28;20226;-77
2022/09/11 00:26:08;;;;;;;7.55;6.95;;;15.40;99.90;;;;;;5032648;28;20472;-77
2022/09/11 00:28:35;;;;;;;7.97;7.33;;;15.40;99.90;;;;;;5032129;28;20205;-77
2022/09/11 00:31:04;;;;;;;6.85;6.30;;;15.40;99.90;;;;;;5033378;28;20198;-77
2022/09/11 00:33:33;;;;;;;8.27;7.47;;;15.40;99.90;;;;;;5032398;28;20252;-77
2022/09/11 00:36:02;;;;;;;7.90;7.25;;;15.30;99.90;;;;;;5031279;28;20203;-77
2022/09/11 00:38:32;;;;;;;9.18;8.27;;;15.30;99.90;;;;;;5032501;28;20301;-77
2022/09/11 00:41:02;;;;;;;7.88;7.28;;;15.30;99.90;;;;;;5031642;28;20594;-77
2022/09/11 00:43:49;;;;;;;9.23;8.43;;;15.20;99.90;;;;;;5031985;28;20222;-76
2022/09/11 00:46:16;;;;;;;9.30;8.45;;;15.20;99.90;;;;;;5032558;28;20463;-77
2022/09/11 00:48:48;;;;;;;9.40;8.52;;;15.20;99.90;;;;;;5030851;28;20215;-77
2022/09/11 00:51:20;;;;;;;9.10;8.30;;;15.20;99.90;;;;;;5032588;28;20209;-76
2022/09/11 00:53:49;;;;;;;7.95;7.35;;;15.10;99.90;;;;;;5032049;28;20199;-76
2022/09/11 00:56:15;;;;;;;8.60;7.90;;;15.10;99.90;;;;;;5032208;28;20211;-76
2022/09/11 00:58:45;;;;;;;8.00;7.30;;;15.10;99.90;;;;;;5031697;28;20206;-77
2022/09/11 01:01:13;;;;;;;7.20;6.68;;;15.10;99.90;;;;;;5032468;28;20195;-77
2022/09/11 01:03:40;;;;;;;7.93;7.22;;;15.10;99.90;;;;;;5031210;28;20218;-77
2022/09/11 01:06:09;;;;;;;7.25;6.65;;;15.10;99.90;;;;;;5031399;28;20217;-77
2022/09/11 01:08:37;;;;;;;8.45;7.75;;;15.00;99.90;;;;;;5032447;28;20284;-76
2022/09/11 01:11:20;;;;;;;8.50;7.65;;;15.00;99.90;;;;;;5031852;28;20563;-76
2022/09/11 01:13:55;;;;;;;8.57;7.88;;;14.90;99.90;;;;;;5031610;28;20202;-77
2022/09/11 01:16:30;;;;;;;7.93;7.33;;;14.90;99.90;;;;;;5031769;28;20284;-77
2022/09/11 01:19:05;;;;;;;8.07;7.40;;;14.90;99.90;;;;;;5032774;28;20186;-76
2022/09/11 01:22:10;;;;;;;7.22;6.63;;;14.90;99.90;;;;;;5032627;28;20194;-76
2022/09/11 01:24:55;;;;;;;7.90;7.20;;;14.80;99.90;;;;;;5015770;28;20215;-77
2022/09/11 01:27:44;;;;;;;8.03;7.33;;;14.80;99.90;;;;;;5031141;28;20510;-76
2022/09/11 01:30:13;;;;;;;10.67;9.67;;;14.80;99.90;;;;;;5031302;28;20222;-77
2022/09/11 01:32:47;;;;;;;8.37;7.67;;;14.70;99.90;;;;;;5031571;28;20187;-76
2022/09/11 01:35:20;;;;;;;10.87;9.87;;;14.70;99.90;;;;;;5031448;28;20245;-77
2022/09/11 01:37:54;;;;;;;9.20;8.30;;;14.70;99.90;;;;;;5031129;28;20289;-77
2022/09/11 01:40:27;;;;;;;11.00;9.90;;;14.70;99.90;;;;;;5032321;28;20194;-76
2022/09/11 01:43:05;;;;;;;9.02;8.23;;;14.70;99.90;;;;;;5031858;28;20199;-80
2022/09/11 01:45:34;;;;;;;8.52;7.72;;;14.60;99.90;;;;;;5029920;28;20551;-76
2022/09/11 01:48:01;;;;;;;8.17;7.47;;;14.60;99.90;;;;;;5031915;28;20241;-76
2022/09/11 01:50:31;;;;;;;7.90;7.20;;;14.60;99.90;;;;;;5030974;28;20293;-77
2022/09/11 01:53:01;;;;;;;9.13;8.20;;;14.60;99.90;;;;;;5031358;28;20336;-77
2022/09/11 01:55:31;;;;;;;7.75;7.07;;;14.60;99.90;;;;;;5030407;28;20194;-76
2022/09/11 01:58:05;;;;;;;8.37;7.50;;;14.60;99.90;;;;;;5031932;28;20187;-76
2022/09/11 02:00:35;;;;;;;7.33;6.73;;;14.60;99.90;;;;;;5031391;28;20206;-76
2022/09/11 02:03:13;;;;;;;8.13;7.43;;;14.60;99.90;;;;;;5030403;28;20207;-78
2022/09/11 02:05:45;;;;;;;8.10;7.30;;;14.50;99.90;;;;;;5030993;28;20221;-78
2022/09/11 02:08:16;;;;;;;7.20;6.60;;;14.50;99.90;;;;;;5032683;28;20209;-77
2022/09/11 02:10:47;;;;;;;7.27;6.57;;;14.50;99.90;;;;;;5030364;28;20199;-77
2022/09/11 02:13:21;;;;;;;7.73;6.80;;;14.40;99.90;;;;;;5030348;28;20191;-77
2022/09/11 02:15:54;;;;;;;7.80;7.10;;;14.40;99.90;;;;;;5030236;28;20238;-76
2022/09/11 02:18:25;;;;;;;8.07;7.33;;;14.40;99.90;;;;;;5031756;28;20317;-76
2022/09/11 02:20:53;;;;;;;8.43;7.45;;;14.40;99.90;;;;;;5030531;28;20285;-77
2022/09/11 02:23:20;;;;;;;9.43;8.43;;;14.30;99.90;;;;;;5031475;28;20207;-76
2022/09/11 02:25:48;;;;;;;8.67;7.87;;;14.40;99.90;;;;;;5031264;28;20215;-77
2022/09/11 02:28:17;;;;;;;8.23;7.47;;;14.30;99.90;;;;;;5030808;28;20205;-77
2022/09/11 02:30:45;;;;;;;7.80;7.20;;;14.30;99.90;;;;;;5014161;28;20231;-77
2022/09/11 02:33:28;;;;;;;8.27;7.47;;;14.30;99.90;;;;;;5011549;28;20608;-77
2022/09/11 02:36:08;;;;;;;8.40;7.70;;;14.30;99.90;;;;;;5011818;28;20191;-77
2022/09/11 02:38:45;;;;;;;7.87;7.27;;;14.30;99.90;;;;;;5011284;28;20365;-77
2022/09/11 02:41:20;;;;;;;7.67;7.07;;;14.30;99.90;;;;;;5010642;28;20195;-77
2022/09/11 02:43:58;;;;;;;7.73;7.10;;;14.20;99.90;;;;;;5030834;28;20202;-77
2022/09/11 02:46:54;;;;;;;7.60;7.00;;;14.20;99.90;;;;;;5032894;28;20186;-77
2022/09/11 02:49:26;;;;;;;6.80;6.20;;;14.20;99.90;;;;;;5033883;28;20203;-76
2022/09/11 02:52:01;;;;;;;8.97;8.20;;;14.10;99.90;;;;;;5034956;28;20193;-76
2022/09/11 02:54:34;;;;;;;7.87;7.20;;;14.10;99.90;;;;;;5034164;28;20187;-77
2022/09/11 02:57:08;;;;;;;6.80;6.30;;;14.10;99.90;;;;;;5034286;28;20268;-76
2022/09/11 02:59:42;;;;;;;7.57;6.93;;;14.10;99.90;;;;;;5034803;28;20199;-77
2022/09/11 03:02:12;;;;;;;8.33;7.63;;;14.10;99.90;;;;;;5032007;28;20205;-75
2022/09/11 03:04:39;;;;;;;7.47;6.77;;;14.00;99.90;;;;;;5034093;28;20228;-77
2022/09/11 03:07:06;;;;;;;7.40;6.80;;;14.10;99.90;;;;;;5034425;28;20215;-76
2022/09/11 03:09:34;;;;;;;7.17;6.57;;;14.10;99.90;;;;;;5033450;28;20531;-77
2022/09/11 03:12:01;;;;;;;7.60;7.00;;;14.00;99.90;;;;;;5033846;28;20225;-77
2022/09/11 03:14:28;;;;;;;7.27;6.60;;;14.10;99.90;;;;;;5033611;28;20233;-77
2022/09/11 03:16:56;;;;;;;7.63;6.93;;;14.00;99.90;;;;;;5033540;28;20229;-77
2022/09/11 03:19:23;;;;;;;8.40;7.70;;;14.00;99.90;;;;;;5034550;28;20281;-76
2022/09/11 03:21:50;;;;;;;8.00;7.07;;;14.00;99.90;;;;;;5033348;28;20313;-76
2022/09/11 03:24:17;;;;;;;8.47;7.67;;;14.00;99.90;;;;;;5025642;28;20635;-76
2022/09/11 03:26:44;;;;;;;7.60;7.00;;;14.00;99.90;;;;;;5025519;28;20210;-76
2022/09/11 03:29:12;;;;;;;7.80;7.07;;;14.00;99.90;;;;;;5022549;28;20254;-76
2022/09/11 03:31:39;;;;;;;7.90;7.20;;;14.00;99.90;;;;;;5025443;28;20281;-76
2022/09/11 03:34:07;;;;;;;7.43;6.73;;;13.90;99.90;;;;;;5025138;28;20210;-76
2022/09/11 03:36:34;;;;;;;6.83;6.33;;;13.90;99.90;;;;;;5017352;28;20576;-76
2022/09/11 03:39:01;;;;;;;6.60;6.00;;;13.90;99.90;;;;;;5030157;28;20213;-77
2022/09/11 03:41:28;;;;;;;7.87;7.23;;;13.90;99.90;;;;;;5030657;28;20202;-76
2022/09/11 03:43:55;;;;;;;7.90;7.20;;;13.80;99.90;;;;;;5016528;28;20214;-77
2022/09/11 03:46:23;;;;;;;7.33;6.73;;;13.80;99.90;;;;;;5033384;28;20211;-77
2022/09/11 03:48:51;;;;;;;7.53;6.83;;;13.80;99.90;;;;;;5033692;28;20797;-77
2022/09/11 03:51:19;;;;;;;6.67;6.13;;;13.80;99.90;;;;;;5033355;28;20206;-77
2022/09/11 03:53:47;;;;;;;6.40;5.80;;;13.80;99.90;;;;;;5040085;23;20737;-77
2022/09/11 03:56:14;;;;;;;6.30;5.77;;;13.70;99.90;;;;;;5033797;28;20202;-76
2022/09/11 03:58:42;;;;;;;6.57;6.00;;;13.70;99.90;;;;;;5031975;28;20207;-76
2022/09/11 04:01:11;;;;;;;6.73;6.23;;;13.70;99.90;;;;;;5031984;28;20219;-77
2022/09/11 04:03:38;;;;;;;7.07;6.47;;;13.70;99.90;;;;;;5030673;28;20489;-76
2022/09/11 04:06:05;;;;;;;7.07;6.47;;;13.60;99.90;;;;;;5024143;28;20227;-77
2022/09/11 04:08:34;;;;;;;7.00;6.50;;;13.60;99.90;;;;;;5013285;28;20211;-77
2022/09/11 04:11:03;;;;;;;6.93;6.30;;;13.60;99.90;;;;;;5013591;28;20209;-76
2022/09/11 04:13:31;;;;;;;7.50;6.90;;;13.60;99.90;;;;;;5012323;28;20202;-77
2022/09/11 04:16:01;;;;;;;6.97;6.37;;;13.60;99.90;;;;;;5017015;28;20317;-77
2022/09/11 04:18:29;;;;;;;6.03;5.60;;;13.60;99.90;;;;;;5032921;28;20255;-76
2022/09/11 04:20:56;;;;;;;6.30;5.80;;;13.50;99.90;;;;;;5032722;28;20195;-78
2022/09/11 04:23:24;;;;;;;7.00;6.40;;;13.50;99.90;;;;;;5032579;28;20187;-77
2022/09/11 04:25:52;;;;;;;7.93;7.13;;;13.50;99.90;;;;;;5031585;28;20215;-77
2022/09/11 04:28:19;;;;;;;7.47;6.77;;;13.50;99.90;;;;;;5032719;28;20854;-77
2022/09/11 04:30:46;;;;;;;7.47;6.80;;;13.50;99.90;;;;;;5012941;28;20227;-77
2022/09/11 04:33:12;;;;;;;7.37;6.77;;;13.50;99.90;;;;;;5012167;28;20235;-78
2022/09/11 04:35:40;;;;;;;7.00;6.40;;;13.50;99.90;;;;;;5012941;28;20486;-77
2022/09/11 04:38:07;;;;;;;6.97;6.37;;;13.50;99.90;;;;;;5012427;28;20206;-77
2022/09/11 04:40:35;;;;;;;6.07;5.57;;;13.40;99.90;;;;;;5012020;28;20202;-77
2022/09/11 04:43:03;;;;;;;6.40;5.80;;;13.40;99.90;;;;;;5012889;28;20206;-76
2022/09/11 04:45:32;;;;;;;6.10;5.50;;;13.40;99.90;;;;;;5012036;28;20218;-77
2022/09/11 04:47:59;;;;;;;7.30;6.63;;;13.40;99.90;;;;;;5012026;28;20191;-77
2022/09/11 04:50:27;;;;;;;8.00;7.30;;;13.30;99.90;;;;;;5011899;28;20200;-77
2022/09/11 04:52:54;;;;;;;7.83;7.13;;;13.30;99.90;;;;;;5012545;28;20845;-77
2022/09/11 04:55:21;;;;;;;6.80;6.30;;;13.30;99.90;;;;;;5011397;28;20207;-77
2022/09/11 04:57:48;;;;;;;7.70;7.00;;;13.30;99.90;;;;;;5012341;28;20274;-77
2022/09/11 05:00:17;;;;;;;7.33;6.67;;;13.30;99.90;;;;;;5011948;28;20759;-77
2022/09/11 05:02:44;;;;;;;8.10;7.40;;;13.30;99.90;;;;;;5011481;28;20203;-77
2022/09/11 05:05:11;;;;;;;6.77;6.27;;;13.30;99.90;;;;;;5011832;28;20249;-77
2022/09/11 05:07:38;;;;;;;7.03;6.43;;;13.30;99.90;;;;;;5012381;28;20345;-77
2022/09/11 05:10:06;;;;;;;7.27;6.67;;;13.30;99.90;;;;;;5011745;28;20203;-77
2022/09/11 05:12:33;;;;;;;6.97;6.37;;;13.30;99.90;;;;;;5012162;28;20199;-77
2022/09/11 05:14:59;;;;;;;8.47;7.67;;;13.30;99.90;;;;;;5012014;28;20205;-77
2022/09/11 05:17:28;;;;;;;8.50;7.70;;;13.30;99.90;;;;;;5011936;28;20796;-77
2022/09/11 05:19:54;;;;;;;7.53;6.83;;;13.30;99.90;;;;;;5011907;28;20215;-76
2022/09/11 05:22:22;;;;;;;7.30;6.67;;;13.30;99.90;;;;;;5012010;28;20230;-76
2022/09/11 05:24:48;;;;;;;7.27;6.67;;;13.30;99.90;;;;;;5011427;28;20526;-76
2022/09/11 05:27:15;;;;;;;7.77;6.97;;;13.30;99.90;;;;;;5012085;28;20226;-76
2022/09/11 05:29:42;;;;;;;7.33;6.67;;;13.30;99.90;;;;;;5011293;28;20219;-76
2022/09/11 05:32:09;;;;;;;7.20;6.60;;;13.30;99.90;;;;;;5011263;28;20512;-77
2022/09/11 05:34:38;;;;;;;6.83;6.23;;;13.30;99.90;;;;;;5012236;28;20203;-76
2022/09/11 05:37:04;;;;;;;6.73;6.10;;;13.30;99.90;;;;;;5011762;28;20195;-76
2022/09/11 05:39:31;;;;;;;7.17;6.47;;;13.30;99.90;;;;;;5011531;28;20207;-76
2022/09/11 05:41:58;;;;;;;6.60;6.00;;;13.30;99.90;;;;;;5010605;28;20205;-77
2022/09/11 05:44:25;;;;;;;6.90;6.30;;;13.30;99.90;;;;;;5010555;28;20790;-77
2022/09/11 05:46:53;;;;;;;6.00;5.20;;;13.30;99.90;;;;;;5011736;28;20658;-78
2022/09/11 05:49:20;;;;;;;6.63;6.13;;;13.30;99.90;;;;;;5011382;28;20207;-77
2022/09/11 05:51:48;;;;;;;7.30;6.70;;;13.30;99.90;;;;;;5010698;28;20199;-76
2022/09/11 05:54:15;;;;;;;6.67;6.07;;;13.40;99.90;;;;;;5010831;28;20231;-77
2022/09/11 05:56:42;;;;;;;6.43;5.90;;;13.40;99.90;;;;;;5011414;28;20206;-76
2022/09/11 05:59:13;;;;;;;7.10;6.40;;;13.40;99.90;;;;;;5009544;28;20199;-76
2022/09/11 06:01:41;;;;;;;7.63;6.83;;;13.40;99.90;;;;;;5011891;28;20186;-76
2022/09/11 06:04:11;;;;;;;6.80;6.23;;;13.40;99.90;;;;;;5011959;28;20195;-76
2022/09/11 06:06:38;;;;;;;6.63;6.03;;;13.40;99.90;;;;;;5010463;28;20620;-76
2022/09/11 06:09:07;;;;;;;6.53;5.93;;;13.40;99.90;;;;;;5011197;28;20203;-76
2022/09/11 06:11:34;;;;;;;8.10;7.40;;;13.40;99.90;;;;;;5011231;28;20203;-77
2022/09/11 06:14:01;;;;;;;7.67;6.90;;;13.40;99.90;;;;;;5011434;28;20202;-77
2022/09/11 06:16:30;;;;;;;7.07;6.47;;;13.50;99.90;;;;;;5011175;28;20234;-77
2022/09/11 06:18:57;;;;;;;6.67;6.07;;;13.50;99.90;;;;;;5010478;28;20203;-79
2022/09/11 06:21:28;;;;;;;7.80;7.10;;;13.50;99.90;;;;;;5006265;28;20196;-78
2022/09/11 06:23:54;;;;;;;6.97;6.37;;;13.60;99.90;;;;;;5005136;28;20207;-76
2022/09/11 06:26:24;;;;;;;7.67;6.97;;;13.60;99.90;;;;;;5010543;28;20470;-76
2022/09/11 06:28:52;;;;;;;8.10;7.40;;;13.60;99.90;;;;;;5013145;28;20318;-77
2022/09/11 06:31:21;;;;;;;7.93;7.17;;;13.70;99.90;;;;;;5010545;28;20235;-76
2022/09/11 06:33:49;;;;;;;8.37;7.67;;;13.80;99.90;;;;;;5010227;28;20211;-77
2022/09/11 06:36:18;;;;;;;8.53;7.83;;;13.80;99.90;;;;;;5011757;28;20619;-76
2022/09/11 06:38:45;;;;;;;9.33;8.43;;;13.80;99.90;;;;;;5010921;28;20273;-76
2022/09/11 06:41:15;;;;;;;10.00;9.20;;;13.90;99.90;;;;;;5014157;28;20211;-76
2022/09/11 06:43:44;;;;;;;10.10;9.20;;;13.90;99.90;;;;;;5014311;28;20191;-77
2022/09/11 06:46:12;;;;;;;10.43;9.47;;;14.00;99.90;;;;;;5014378;28;20321;-76
2022/09/11 06:48:39;;;;;;;14.50;12.13;;;14.10;99.90;;;;;;5014184;28;20199;-76
2022/09/11 06:51:08;;;;;;;11.67;10.63;;;14.20;99.90;;;;;;5014291;28;20207;-76
2022/09/11 06:53:35;;;;;;;14.03;11.93;;;14.30;99.90;;;;;;5013958;28;20235;-78
2022/09/11 06:56:03;;;;;;;13.90;12.57;;;14.40;99.90;;;;;;5014567;28;20261;-77
2022/09/11 06:58:30;;;;;;;12.97;11.70;;;14.60;99.90;;;;;;5012741;28;20219;-77
2022/09/11 07:01:02;;;;;;;11.50;10.40;;;14.80;99.90;;;;;;5012926;28;20206;-78
2022/09/11 07:03:29;;;;;;;10.47;9.27;;;14.90;99.90;;;;;;5012966;28;20687;-78
2022/09/11 07:05:55;;;;;;;12.20;11.10;;;14.90;99.90;;;;;;5013228;28;20225;-76
2022/09/11 07:08:22;;;;;;;10.40;9.40;;;15.00;99.90;;;;;;5012926;28;20496;-75
2022/09/11 07:10:49;;;;;;;10.30;9.40;;;15.10;99.90;;;;;;5013087;28;20203;-77
2022/09/11 07:13:16;;;;;;;11.10;9.77;;;15.20;99.90;;;;;;5013828;28;20584;-76
2022/09/11 07:15:43;;;;;;;10.97;9.87;;;15.30;99.90;;;;;;5013637;28;20205;-76
2022/09/11 07:18:11;;;;;;;10.17;9.17;;;15.40;99.90;;;;;;5013630;28;20203;-76
2022/09/11 07:20:40;;;;;;;9.98;8.93;;;15.50;99.90;;;;;;5014281;28;20298;-76
2022/09/11 07:23:07;;;;;;;8.80;7.43;;;15.60;99.90;;;;;;5013513;28;20214;-75
2022/09/11 07:25:37;;;;;;;8.07;7.27;;;15.70;99.90;;;;;;5014251;28;20207;-76
2022/09/11 07:28:04;;;;;;;7.70;6.53;;;15.80;99.90;;;;;;5013954;28;20266;-76
2022/09/11 07:30:32;;;;;;;7.97;7.17;;;15.80;99.90;;;;;;5012853;28;20219;-76
2022/09/11 07:32:58;;;;;;;8.15;6.40;;;15.90;99.90;;;;;;5013785;28;20600;-75
2022/09/11 07:35:27;;;;;;;7.55;6.72;;;16.00;99.90;;;;;;5013945;28;20191;-75
2022/09/11 07:37:54;;;;;;;10.17;7.50;;;16.00;99.90;;;;;;5013277;28;20206;-76
2022/09/11 07:40:21;;;;;;;10.07;7.38;;;16.10;99.90;;;;;;5013947;28;20763;-75
2022/09/11 07:42:47;;;;;;;10.63;6.72;;;16.20;99.90;;;;;;5013017;28;20259;-76
2022/09/11 07:45:15;;;;;;;8.07;6.43;;;16.20;99.90;;;;;;5013203;28;20217;-76
2022/09/11 07:47:42;;;;;;;6.45;5.45;;;16.30;99.90;;;;;;5013577;28;20608;-76
2022/09/11 07:50:10;;;;;;;6.97;5.38;;;16.30;99.90;;;;;;5013231;28;20195;-75
2022/09/11 07:52:38;;;;;;;7.82;6.20;;;16.40;99.90;;;;;;5013185;28;20207;-76
2022/09/11 07:55:06;;;;;;;7.97;6.65;;;16.40;99.90;;;;;;5013459;28;20227;-76
2022/09/11 07:57:33;;;;;;;8.55;6.45;;;16.50;99.90;;;;;;5013004;28;20199;-76
2022/09/11 08:00:00;;;;;;;7.45;6.50;;;16.60;99.90;;;;;;5013357;28;20203;-75
2022/09/11 08:02:27;;;;;;;10.38;6.45;;;16.60;99.90;;;;;;5012852;28;20294;-76
2022/09/11 08:04:54;;;;;;;10.30;5.90;;;16.70;99.90;;;;;;5012640;28;20294;-76
2022/09/11 08:07:21;;;;;;;8.27;5.97;;;16.70;99.90;;;;;;5013576;28;20219;-75
2022/09/11 08:09:50;;;;;;;7.32;5.68;;;16.80;99.90;;;;;;5012826;28;20548;-76
2022/09/11 08:12:17;;;;;;;7.07;5.68;;;17.00;99.90;;;;;;5012701;28;20207;-76
2022/09/11 08:14:44;;;;;;;7.18;5.82;;;17.20;99.90;;;;;;5012734;28;20218;-76
2022/09/11 08:17:11;;;;;;;6.85;5.80;;;17.40;99.90;;;;;;5013318;28;20291;-76
2022/09/11 08:19:38;;;;;;;5.88;5.32;;;17.60;99.90;;;;;;5012277;28;20202;-76
2022/09/11 08:22:04;;;;;;;6.15;5.55;;;17.90;99.90;;;;;;5013210;28;20203;-76
2022/09/11 08:24:32;;;;;;;6.18;4.78;;;18.10;99.90;;;;;;5012892;28;20203;-76
2022/09/11 08:27:01;;;;;;;6.43;4.82;;;18.30;99.90;;;;;;5012406;28;20258;-76
2022/09/11 08:29:28;;;;;;;7.93;4.40;;;18.60;99.90;;;;;;5012572;28;20227;-76
2022/09/11 08:31:55;;;;;;;5.38;4.15;;;18.80;99.90;;;;;;5012608;28;20203;-77
2022/09/11 08:34:22;;;;;;;5.40;4.13;;;19.10;99.90;;;;;;5010539;28;20191;-77
2022/09/11 08:36:51;;;;;;;4.00;3.30;;;19.20;99.90;;;;;;5012428;28;20205;-77
2022/09/11 08:39:17;;;;;;;4.32;3.28;;;19.30;99.90;;;;;;5012137;28;20262;-78
2022/09/11 08:41:48;;;;;;;8.05;3.35;;;19.50;99.90;;;;;;5007570;28;20768;-77
2022/09/11 08:44:23;;;;;;;2.85;2.45;;;19.70;99.90;;;;;;5012126;28;20179;-78
2022/09/11 08:46:55;;;;;;;2.92;2.28;;;20.00;99.90;;;;;;5011856;28;20207;-78
2022/09/11 08:49:25;;;;;;;3.50;2.60;;;20.00;99.90;;;;;;5011959;28;20203;-79
2022/09/11 08:51:56;;;;;;;4.95;2.55;;;19.90;99.90;;;;;;5012574;28;20290;-78
2022/09/11 08:54:27;;;;;;;2.25;2.05;;;19.80;99.90;;;;;;5012013;28;20247;-78
2022/09/11 08:57:04;;;;;;;2.85;2.45;;;19.70;99.90;;;;;;5012192;28;20200;-78
2022/09/11 08:59:51;;;;;;;2.63;2.10;;;19.50;99.90;;;;;;5012108;28;20203;-78
2022/09/11 09:02:33;;;;;;;6.03;2.70;;;19.40;99.90;;;;;;5008686;28;20219;-76
2022/09/11 09:05:14;;;;;;;2.55;2.22;;;19.40;99.90;;;;;;5011479;28;20199;-77
2022/09/11 09:07:53;;;;;;;5.00;2.15;;;19.30;99.90;;;;;;5030743;28;20272;-77
2022/09/11 09:10:32;;;;;;;4.43;2.53;;;19.20;99.90;;;;;;5024990;28;20206;-78
2022/09/11 09:13:05;;;;;;;3.25;2.10;;;19.20;99.90;;;;;;5028194;28;20602;-77
2022/09/11 09:15:46;;;;;;;2.85;2.30;;;19.40;99.90;;;;;;5031135;28;20214;-77
2022/09/11 09:18:20;;;;;;;3.38;2.40;;;19.70;99.90;;;;;;5031569;28;20193;-77
2022/09/11 09:20:59;;;;;;;2.15;1.67;;;20.10;99.90;;;;;;5019732;28;20204;-77
2022/09/11 09:23:31;;;;;;;3.83;2.22;;;20.40;99.90;;;;;;5011614;28;20198;-78
2022/09/11 09:25:58;;;;;;;3.50;2.30;;;20.70;99.90;;;;;;5010901;28;20676;-77
2022/09/11 09:28:31;;;;;;;4.20;2.13;;;21.00;99.90;;;;;;5008660;28;20860;-78
2022/09/11 09:31:06;;;;;;;2.85;1.85;;;21.30;99.90;;;;;;5001638;28;20553;-77
2022/09/11 09:33:34;;;;;;;2.22;1.80;;;21.50;99.90;;;;;;5011280;28;20219;-77
2022/09/11 09:36:15;;;;;;;3.45;1.80;;;21.80;99.90;;;;;;5012742;28;20215;-76
2022/09/11 09:38:42;;;;;;;3.00;2.00;;;22.00;99.90;;;;;;5014427;28;20715;-77
2022/09/11 09:42:01;;;;;;;2.47;1.80;;;22.20;99.90;;;;;;5019111;28;20219;-79
2022/09/11 09:44:42;;;;;;;3.08;1.60;;;22.40;99.90;;;;;;4936445;29;20838;-78
2022/09/11 09:47:12;;;;;;;4.22;1.90;;;22.60;99.90;;;;;;4927098;29;20237;-78
2022/09/11 09:49:39;;;;;;;2.50;1.52;;;22.80;99.90;;;;;;4991956;28;20210;-78
2022/09/11 09:52:16;;;;;;;1.67;1.30;;;23.00;99.90;;;;;;5008829;28;20638;-76
2022/09/11 09:54:44;;;;;;;2.20;1.77;;;23.30;99.90;;;;;;5016362;28;20288;-78
2022/09/11 09:57:12;;;;;;;3.45;1.60;;;23.60;99.90;;;;;;5014411;28;20803;-77
2022/09/11 09:59:43;;;;;;;4.18;1.85;;;23.80;99.90;;;;;;5020056;28;20225;-78
2022/09/11 10:02:12;;;;;;;2.25;1.60;;;23.90;99.90;;;;;;5020238;28;20541;-78
2022/09/11 10:04:39;;;;;;;2.58;1.60;;;23.90;99.90;;;;;;5022544;28;20595;-77
2022/09/11 10:07:09;;;;;;;2.50;1.60;;;23.80;99.90;;;;;;5019682;28;20658;-77
2022/09/11 10:09:37;;;;;;;2.95;1.80;;;23.50;99.90;;;;;;5012490;28;20218;-77
2022/09/11 10:12:07;;;;;;;4.15;2.00;;;23.20;99.90;;;;;;5023308;28;20211;-78
2022/09/11 10:14:44;;;;;;;2.88;1.83;;;22.80;99.90;;;;;;5021672;28;20260;-76
2022/09/11 10:17:22;;;;;;;2.92;1.83;;;22.50;99.90;;;;;;5018088;28;20210;-77
2022/09/11 10:19:50;;;;;;;6.20;1.83;;;22.30;99.90;;;;;;5032013;28;20218;-77
2022/09/11 10:22:26;;;;;;;2.20;1.83;;;22.10;99.90;;;;;;5029396;28;20522;-77
2022/09/11 10:25:00;;;;;;;4.63;1.98;;;21.90;99.90;;;;;;5022027;28;20511;-76
2022/09/11 10:27:33;;;;;;;2.55;1.50;;;21.70;99.90;;;;;;5015415;28;20215;-76
2022/09/11 10:30:01;;;;;;;3.92;1.95;;;21.60;99.90;;;;;;5014877;28;20215;-77
2022/09/11 10:32:30;;;;;;;3.58;1.85;;;21.50;99.90;;;;;;5013746;28;20199;-78
2022/09/11 10:34:58;;;;;;;3.10;2.03;;;21.50;99.90;;;;;;5014986;28;20293;-76
2022/09/11 10:37:28;;;;;;;3.08;2.00;;;21.50;99.90;;;;;;5014257;28;20738;-77
2022/09/11 10:40:04;;;;;;;3.35;2.00;;;21.50;99.90;;;;;;5014172;28;20192;-77
2022/09/11 10:42:33;;;;;;;4.47;2.13;;;21.60;99.90;;;;;;5014309;28;20195;-79
2022/09/11 10:45:09;;;;;;;2.92;1.95;;;21.80;99.90;;;;;;5014528;28;20210;-77
2022/09/11 10:47:37;;;;;;;3.22;2.17;;;21.90;99.90;;;;;;5014276;28;20226;-77
2022/09/11 10:50:23;;;;;;;3.58;2.20;;;21.90;99.90;;;;;;5014251;28;20234;-77
2022/09/11 10:53:03;;;;;;;2.20;1.90;;;22.00;99.90;;;;;;5013056;28;20235;-77
2022/09/11 10:55:34;;;;;;;4.03;2.03;;;21.90;99.90;;;;;;5015058;28;20257;-77
2022/09/11 10:58:07;;;;;;;2.17;1.90;;;21.90;99.90;;;;;;5014906;28;20791;-77
2022/09/11 11:00:37;;;;;;;3.58;2.17;;;21.80;99.90;;;;;;5014115;28;20195;-77
2022/09/11 11:03:11;;;;;;;3.70;1.85;;;21.80;99.90;;;;;;5013716;28;20283;-76
2022/09/11 11:05:50;;;;;;;4.10;2.15;;;21.80;99.90;;;;;;5014342;28;20195;-77
2022/09/11 11:08:49;;;;;;;4.28;2.25;;;21.80;99.90;;;;;;5012804;28;20605;-76
2022/09/11 11:11:31;;;;;;;3.50;2.10;;;21.80;99.90;;;;;;5014480;28;20203;-77
2022/09/11 11:14:22;;;;;;;2.42;1.85;;;21.70;99.90;;;;;;5013545;28;20207;-77
2022/09/11 11:17:02;;;;;;;3.45;1.88;;;21.70;99.90;;;;;;5014026;28;20753;-76
2022/09/11 11:19:46;;;;;;;2.83;1.63;;;21.50;99.90;;;;;;5011383;28;20187;-76
2022/09/11 11:22:25;;;;;;;4.65;2.13;;;21.50;99.90;;;;;;5012773;28;20199;-76
2022/09/11 11:25:06;;;;;;;3.17;2.15;;;21.50;99.90;;;;;;5014281;28;20213;-76
2022/09/11 11:27:51;;;;;;;4.10;2.10;;;21.50;99.90;;;;;;5013713;28;20227;-77
2022/09/11 11:30:20;;;;;;;3.33;1.85;;;21.50;99.90;;;;;;5014217;28;20219;-79
2022/09/11 11:33:11;;;;;;;2.65;1.90;;;21.40;99.90;;;;;;5013646;28;20203;-78
2022/09/11 11:35:45;;;;;;;2.65;2.00;;;21.40;99.90;;;;;;5013074;28;20286;-78
2022/09/11 11:38:23;;;;;;;3.95;2.60;;;21.40;99.90;;;;;;5013685;28;20606;-78
2022/09/11 11:40:53;;;;;;;3.78;1.88;;;21.40;99.90;;;;;;5013357;28;20203;-77
2022/09/11 11:43:24;;;;;;;2.15;1.80;;;21.30;99.90;;;;;;5012454;28;20199;-78
2022/09/11 11:45:57;;;;;;;3.08;1.92;;;21.20;99.90;;;;;;5013603;28;20283;-77
2022/09/11 11:48:29;;;;;;;2.50;2.00;;;21.20;99.90;;;;;;5013523;28;20552;-77
2022/09/11 11:51:01;;;;;;;3.28;2.28;;;21.20;99.90;;;;;;5012330;28;20210;-78
2022/09/11 11:53:32;;;;;;;3.53;2.15;;;21.10;99.90;;;;;;5012542;28;20238;-77
2022/09/11 11:56:06;;;;;;;2.63;2.00;;;21.00;99.90;;;;;;5012718;28;20217;-77
2022/09/11 11:58:46;;;;;;;4.50;2.60;;;20.90;99.90;;;;;;5013103;28;20314;-77
2022/09/11 12:01:21;;;;;;;2.42;1.60;;;20.90;99.90;;;;;;5011864;28;20519;-77
2022/09/11 12:03:55;;;;;;;2.55;1.83;;;20.90;99.90;;;;;;5012234;28;20191;-76
2022/09/11 12:06:23;;;;;;;2.25;1.92;;;20.90;99.90;;;;;;5013377;28;20670;-77
2022/09/11 12:08:50;;;;;;;2.25;1.70;;;20.90;99.90;;;;;;5009175;28;20323;-78
2022/09/11 12:11:31;;;;;;;4.05;2.28;;;20.90;99.90;;;;;;5005035;28;20198;-77
2022/09/11 12:13:59;;;;;;;2.78;1.83;;;20.80;99.90;;;;;;5012674;28;20796;-75
2022/09/11 12:16:30;;;;;;;3.60;1.80;;;20.80;99.90;;;;;;5012899;28;20210;-75
2022/09/11 12:19:03;;;;;;;3.25;2.00;;;20.80;99.90;;;;;;5011230;28;20195;-76
2022/09/11 12:21:38;;;;;;;3.40;2.05;;;20.80;99.90;;;;;;5029576;23;20235;-76
2022/09/11 12:24:23;;;;;;;3.05;2.40;;;20.90;99.90;;;;;;5032110;28;20263;-75
2022/09/11 12:27:23;;;;;;;3.67;1.75;;;21.00;99.90;;;;;;5031859;28;20568;-76
2022/09/11 12:29:56;;;;;;;2.40;1.88;;;20.90;99.90;;;;;;4992348;28;20246;-75
2022/09/11 12:32:43;;;;;;;2.58;1.90;;;20.90;99.90;;;;;;5032171;28;20204;-76
2022/09/11 12:35:27;;;;;;;2.20;1.90;;;20.90;99.90;;;;;;5032123;28;20206;-76
2022/09/11 12:38:00;;;;;;;5.25;2.78;;;20.90;99.90;;;;;;5031992;28;20202;-77
2022/09/11 12:40:37;;;;;;;4.25;2.00;;;21.00;99.90;;;;;;5030544;28;20202;-77
2022/09/11 12:43:30;;;;;;;4.03;2.20;;;20.90;99.90;;;;;;5031264;28;20194;-77
2022/09/11 12:45:57;;;;;;;2.15;1.67;;;20.90;99.90;;;;;;5023725;28;20209;-77
2022/09/11 12:48:36;;;;;;;3.60;2.25;;;20.80;99.90;;;;;;5032474;28;20223;-77
2022/09/11 12:51:04;;;;;;;2.30;2.00;;;20.80;99.90;;;;;;5031221;28;20205;-77
2022/09/11 12:53:37;;;;;;;2.63;2.00;;;20.80;99.90;;;;;;5031279;28;20290;-77
2022/09/11 12:56:06;;;;;;;4.07;2.63;;;20.80;99.90;;;;;;5032285;28;20298;-77
2022/09/11 12:58:37;;;;;;;5.18;2.67;;;21.10;99.90;;;;;;5032347;28;20212;-77
2022/09/11 13:01:17;;;;;;;3.63;2.17;;;21.20;99.90;;;;;;5030657;28;20233;-77
2022/09/11 13:03:56;;;;;;;3.53;2.17;;;21.30;99.90;;;;;;5031862;28;20582;-77
2022/09/11 13:06:26;;;;;;;4.00;2.33;;;21.30;99.90;;;;;;5031713;28;20198;-78